This is the latest recevied weather packets stored in our database for station/object EA7RX-4. If no packets are shown the sender has not sent any weather packets the latest 10 day(s).
| Time | Temp. | Humidity | Pressure | Rain* | Wind** | Luminosity | Snow |
|---|---|---|---|---|---|---|---|
| 1787497203 | 30° C | 28% | 1014.2 hPa | 0 mm | - | 690 W/m² | - |
| 1787496603 | 30° C | 28% | 1014.4 hPa | 0 mm | - | 704 W/m² | - |
| 1787496003 | 30.56° C | 28% | 1014.3 hPa | 0 mm | - | 735 W/m² | - |
| 1787495403 | 29.44° C | 29% | 1014.6 hPa | 0 mm | - | 781 W/m² | - |
| 1787494803 | 29.44° C | 29% | 1014.5 hPa | 0 mm | - | 789 W/m² | - |
| 1787494203 | 29.44° C | 29% | 1014.6 hPa | 0 mm | - | 846 W/m² | - |
| 1787493603 | 29.44° C | 30% | 1015 hPa | 0 mm | - | 199 W/m² | - |
| 1787493003 | 29.44° C | 29% | 1015.1 hPa | 0 mm | - | 200 W/m² | - |
| 1787492403 | 28.89° C | 31% | 1015.1 hPa | 0 mm | - | 994 W/m² | - |
| 1787491803 | 29.44° C | 29% | 1015.3 hPa | 0 mm | - | 188 W/m² | - |
| 1787491203 | 29.44° C | 30% | 1015.3 hPa | 0 mm | - | 962 W/m² | - |
| 1787490603 | 29.44° C | 28% | 1015.4 hPa | 0 mm | - | 917 W/m² | - |
| 1787490003 | 29.44° C | 31% | 1015.6 hPa | 0 mm | - | 242 W/m² | - |
| 1787489403 | 28.33° C | 33% | 1015.5 hPa | 0 mm | - | 1003 W/m² | - |
| 1787488803 | 29.44° C | 32% | 1015.4 hPa | 0 mm | - | 367 W/m² | - |
| 1787488203 | 28.89° C | 34% | 1015.6 hPa | 0 mm | - | 956 W/m² | - |
| 1787487603 | 28.33° C | 35% | 1015.5 hPa | 0 mm | - | 939 W/m² | - |
| 1787487003 | 27.78° C | 35% | 1015.7 hPa | 0 mm | - | 928 W/m² | - |
| 1787486403 | 28.33° C | 35% | 1015.9 hPa | 0 mm | - | 954 W/m² | - |
| 1787485803 | 28.33° C | 35% | 1015.8 hPa | 0 mm | - | 929 W/m² | - |
| 1787485203 | 26.67° C | 39% | 1016.1 hPa | 0 mm | - | 184 W/m² | - |
| 1787484603 | 27.22° C | 40% | 1016.1 hPa | 0 mm | - | 974 W/m² | - |
| 1787484003 | 26.67° C | 43% | 1016.4 hPa | 0 mm | - | 320 W/m² | - |
| 1787483403 | 26.11° C | 43% | 1016.4 hPa | 0 mm | - | 274 W/m² | - |
| 1787482803 | 26.67° C | 42% | 1016.3 hPa | 0 mm | - | 1015 W/m² | - |
* Rain latest hour (hover to see other rain measurements)
** Current wind speed in m/s (hover to see current wind gust speed)